Time;durP1;ratioP1;P1;durP2;ratioP2;P2;SDS_P1;SDS_P2;PMS_P1;PMS_P2;Temp;Humidity;BMP_temperature;BMP_pressure;BME280_temperature;BME280_humidity;BME280_pressure;Samples;Min_cycle;Max_cycle;Signal;HPM_P1;HPM_P2
2024/02/02 00:01:31;;;;;;;16.50;5.10;;;;;;;0.21;100.00;99976.85;435319;1254;138837;-60
2024/02/02 00:11:36;;;;;;;8.40;3.70;;;;;;;0.40;100.00;99983.79;435439;1253;139564;-61
2024/02/02 00:21:42;;;;;;;12.50;5.40;;;;;;;0.60;100.00;99990.36;435330;1254;138723;-61
2024/02/02 00:31:48;;;;;;;12.70;4.90;;;;;;;0.73;100.00;99991.86;435423;1256;139960;-61
2024/02/02 00:41:54;;;;;;;9.50;4.90;;;;;;;0.79;100.00;99992.61;435058;1253;139225;-60
2024/02/02 00:52:00;;;;;;;6.30;2.90;;;;;;;0.84;100.00;99996.50;434933;1254;139208;-61
2024/02/02 01:02:07;;;;;;;8.40;4.10;;;;;;;0.89;100.00;99998.83;435349;1254;141022;-60
2024/02/02 01:12:13;;;;;;;15.70;3.90;;;;;;;0.97;100.00;99995.91;434892;1256;192738;-60
2024/02/02 01:22:19;;;;;;;7.60;3.20;;;;;;;0.96;100.00;100009.05;435955;1254;140300;-60
2024/02/02 01:32:25;;;;;;;8.40;3.60;;;;;;;0.95;100.00;100018.73;435049;1254;139194;-61
2024/02/02 01:42:30;;;;;;;5.90;2.40;;;;;;;0.95;100.00;100019.23;434755;1256;139458;-60
2024/02/02 01:52:36;;;;;;;6.40;2.20;;;;;;;0.97;100.00;100026.79;434748;1254;138955;-60
2024/02/02 02:02:42;;;;;;;7.70;2.60;;;;;;;0.97;100.00;100041.61;434823;1256;139303;-59
2024/02/02 02:12:50;;;;;;;10.40;3.30;;;;;;;1.06;100.00;100053.54;434850;1256;139346;-60
2024/02/02 02:22:56;;;;;;;6.40;2.90;;;;;;;1.19;100.00;100060.55;435530;1254;139565;-61
2024/02/02 02:33:02;;;;;;;6.00;2.50;;;;;;;1.29;100.00;100048.98;434807;1254;139136;-60
2024/02/02 02:43:08;;;;;;;7.30;3.20;;;;;;;1.38;100.00;100051.60;434741;1256;139884;-61
2024/02/02 02:53:14;;;;;;;10.80;3.40;;;;;;;1.45;100.00;100052.66;434652;1256;140624;-61
2024/02/02 03:03:20;;;;;;;12.70;3.20;;;;;;;1.52;100.00;100067.37;435361;1256;140252;-60
2024/02/02 03:13:27;;;;;;;8.10;3.10;;;;;;;1.57;100.00;100062.98;434666;1253;139498;-60
2024/02/02 03:23:33;;;;;;;11.50;2.50;;;;;;;1.56;100.00;100067.81;434899;1256;140164;-62
2024/02/02 03:33:38;;;;;;;9.90;3.10;;;;;;;1.50;100.00;100064.30;435271;1254;139052;-60
2024/02/02 03:43:44;;;;;;;8.90;4.30;;;;;;;1.47;100.00;100074.36;435130;1254;139071;-60
2024/02/02 03:53:51;;;;;;;11.10;3.30;;;;;;;1.46;100.00;100099.06;435877;1254;139263;-65
2024/02/02 04:03:57;;;;;;;9.80;3.70;;;;;;;1.47;100.00;100107.49;435614;1254;140443;-60
2024/02/02 04:14:02;;;;;;;11.60;4.00;;;;;;;1.47;100.00;100108.03;434783;1254;140488;-60
2024/02/02 04:24:09;;;;;;;10.30;3.40;;;;;;;1.46;100.00;100114.43;434845;1256;140732;-61
2024/02/02 04:34:15;;;;;;;10.50;3.90;;;;;;;1.43;100.00;100112.05;434948;1256;139699;-60
2024/02/02 04:44:21;;;;;;;10.10;4.20;;;;;;;1.41;100.00;100122.09;434946;1255;139370;-60
2024/02/02 04:54:27;;;;;;;5.80;2.70;;;;;;;1.42;100.00;100120.86;435329;1256;141856;-60
2024/02/02 05:04:33;;;;;;;10.10;3.70;;;;;;;1.44;100.00;100117.05;435168;1256;139958;-60
2024/02/02 05:14:39;;;;;;;13.10;3.80;;;;;;;1.47;100.00;100118.70;435473;1256;139116;-58
2024/02/02 05:24:45;;;;;;;9.60;2.70;;;;;;;1.50;100.00;100132.10;435505;1257;140155;-61
2024/02/02 05:34:51;;;;;;;15.70;4.70;;;;;;;1.52;100.00;100131.04;435280;1257;139368;-61
2024/02/02 05:44:57;;;;;;;9.70;3.70;;;;;;;1.53;100.00;100143.11;435546;1255;139125;-60
2024/02/02 05:55:04;;;;;;;8.60;3.40;;;;;;;1.52;100.00;100139.67;435805;1254;139667;-60
2024/02/02 06:05:11;;;;;;;14.10;3.10;;;;;;;1.52;100.00;100137.94;435482;1255;140850;-61
2024/02/02 06:15:15;;;;;;;;;;;;;;;1.51;100.00;100150.39;437716;1251;140569;-60
2024/02/02 06:25:21;;;;;;;10.70;3.50;;;;;;;1.46;100.00;100154.61;435068;1257;126241;-60
2024/02/02 06:35:28;;;;;;;11.30;4.10;;;;;;;1.45;100.00;100171.02;434921;1254;140944;-60
2024/02/02 06:45:34;;;;;;;11.00;3.60;;;;;;;1.50;100.00;100175.23;435336;1256;140043;-61
2024/02/02 06:55:40;;;;;;;8.70;3.30;;;;;;;1.56;100.00;100163.76;435233;1257;140887;-61
2024/02/02 07:05:47;;;;;;;12.60;4.30;;;;;;;1.63;100.00;100167.27;434832;1256;141645;-61
2024/02/02 07:15:52;;;;;;;11.40;3.50;;;;;;;1.73;100.00;100180.38;434991;1256;139513;-60
2024/02/02 07:25:59;;;;;;;10.90;4.50;;;;;;;1.92;100.00;100177.98;435600;1256;140133;-64
2024/02/02 07:36:08;;;;;;;11.30;4.50;;;;;;;2.32;100.00;100180.27;434616;1255;139589;-77
2024/02/02 07:46:14;;;;;;;12.30;4.90;;;;;;;2.78;100.00;100191.42;434992;1256;140883;-69
2024/02/02 07:56:23;;;;;;;22.60;5.50;;;;;;;3.34;100.00;100204.67;434925;1257;139048;-70
2024/02/02 08:06:29;;;;;;;15.90;5.00;;;;;;;3.59;100.00;100201.46;434902;1254;140212;-74
2024/02/02 08:16:35;;;;;;;10.20;5.20;;;;;;;3.81;100.00;100212.86;435241;1254;139948;-70
2024/02/02 08:26:41;;;;;;;16.80;6.50;;;;;;;4.03;100.00;100218.19;435011;1254;139416;-72
2024/02/02 08:36:47;;;;;;;13.10;3.80;;;;;;;3.77;100.00;100219.02;438222;1254;139108;-66
2024/02/02 08:47:09;;;;;;;15.20;4.80;;;;;;;4.03;100.00;100215.56;438572;1248;139867;-71
2024/02/02 08:57:46;;;;;;;10.70;5.40;;;;;;;5.05;100.00;100209.86;434915;1256;322142;-72
2024/02/02 09:08:02;;;;;;;13.90;5.60;;;;;;;5.67;100.00;100210.15;436723;1253;140427;-68
2024/02/02 09:18:17;;;;;;;11.90;5.60;;;;;;;6.69;100.00;100211.08;435068;1254;139261;-74
2024/02/02 09:28:40;;;;;;;15.40;5.70;;;;;;;7.06;100.00;100215.95;436619;1255;139848;-66
2024/02/02 09:39:00;;;;;;;13.30;4.00;;;;;;;7.18;99.85;100221.72;434931;1253;139781;-67
2024/02/02 09:49:16;;;;;;;12.90;5.30;;;;;;;6.94;98.51;100224.23;434937;1255;138943;-65
2024/02/02 09:59:36;;;;;;;13.30;6.10;;;;;;;6.54;98.51;100210.44;434963;1254;139352;-67
2024/02/02 10:10:10;;;;;;;17.80;4.80;;;;;;;6.64;98.60;100197.38;435593;1256;139395;-67
2024/02/02 10:20:26;;;;;;;11.30;5.80;;;;;;;6.73;97.86;100193.21;436683;1256;139148;-67
2024/02/02 10:30:51;;;;;;;10.70;4.10;;;;;;;6.66;97.12;100182.67;435797;1255;139432;-64
2024/02/02 10:41:09;;;;;;;12.80;5.00;;;;;;;6.54;96.54;100168.70;435413;1255;139106;-68
2024/02/02 10:51:28;;;;;;;14.60;5.00;;;;;;;6.42;96.01;100158.34;436131;1256;139280;-66
2024/02/02 11:01:45;;;;;;;14.40;4.60;;;;;;;6.32;96.51;100164.12;434940;1254;140188;-67
2024/02/02 11:12:00;;;;;;;12.10;5.90;;;;;;;6.35;95.44;100161.05;435333;1254;139234;-65
2024/02/02 11:22:30;;;;;;;15.50;5.30;;;;;;;6.19;95.15;100161.29;435609;1253;139411;-63
2024/02/02 11:33:01;;;;;;;13.20;4.50;;;;;;;6.13;95.36;100147.05;435580;1256;138695;-71
2024/02/02 11:43:09;;;;;;;22.10;7.30;;;;;;;6.06;95.07;100129.42;435526;1256;140222;-63
2024/02/02 11:53:24;;;;;;;17.80;6.10;;;;;;;5.92;94.71;100113.38;435223;1256;139821;-64
2024/02/02 12:03:46;;;;;;;12.60;5.30;;;;;;;5.73;94.76;100100.83;435224;1256;139297;-64
2024/02/02 12:13:56;;;;;;;13.90;5.70;;;;;;;5.92;95.32;100090.62;435095;1254;139388;-62
2024/02/02 12:24:02;;;;;;;11.80;4.90;;;;;;;6.02;94.88;100080.70;435524;1256;140212;-61
2024/02/02 12:34:08;;;;;;;15.30;5.10;;;;;;;5.84;94.63;100062.41;435134;1254;139308;-63
2024/02/02 12:44:14;;;;;;;14.00;5.00;;;;;;;5.57;94.71;100040.65;435165;1256;140301;-61
2024/02/02 12:54:20;;;;;;;25.20;7.40;;;;;;;5.29;95.12;100021.63;435201;1257;139468;-58
2024/02/02 13:04:26;;;;;;;18.30;6.60;;;;;;;5.36;95.62;100011.85;437135;1256;139442;-60
2024/02/02 13:14:35;;;;;;;12.70;5.60;;;;;;;5.22;95.44;100003.50;435476;1256;138879;-59
2024/02/02 13:24:50;;;;;;;12.10;4.00;;;;;;;4.98;95.69;99997.89;436174;1256;139828;-61
2024/02/02 13:35:01;;;;;;;16.20;6.00;;;;;;;4.93;96.60;99993.39;435816;1256;139251;-59
2024/02/02 13:45:15;;;;;;;18.50;6.50;;;;;;;4.89;96.57;99984.32;436747;1256;138656;-58
2024/02/02 13:55:29;;;;;;;7.60;4.30;;;;;;;4.80;96.86;99981.14;438388;1254;139162;-81
2024/02/02 14:05:39;;;;;;;18.00;5.20;;;;;;;4.64;96.77;99973.52;439997;1256;139115;-86
2024/02/02 14:15:47;;;;;;;14.70;5.20;;;;;;;4.46;97.21;99960.42;440653;1256;138915;-70
2024/02/02 14:25:54;;;;;;;12.00;4.60;;;;;;;4.36;97.47;99943.73;438807;1254;141121;-78
2024/02/02 14:36:01;;;;;;;12.40;4.80;;;;;;;4.28;97.91;99932.74;437917;1256;139993;-67
2024/02/02 14:46:08;;;;;;;7.50;4.10;;;;;;;4.15;98.69;99916.67;438451;1254;138992;-61
2024/02/02 14:56:14;;;;;;;15.80;6.30;;;;;;;3.92;99.77;99907.38;435021;1257;139117;-58
2024/02/02 15:06:20;;;;;;;15.10;6.70;;;;;;;3.62;100.00;99872.77;438611;1254;139154;-64
2024/02/02 15:16:30;;;;;;;18.20;9.70;;;;;;;3.41;100.00;99865.27;434951;1256;139242;-64
2024/02/02 15:26:38;;;;;;;13.70;8.00;;;;;;;3.27;100.00;99858.06;434939;1257;139927;-60
2024/02/02 15:36:45;;;;;;;15.20;8.30;;;;;;;3.18;100.00;99845.70;435298;1256;139192;-61
2024/02/02 15:46:51;;;;;;;19.30;11.40;;;;;;;3.07;100.00;99837.04;434867;1254;139925;-63
2024/02/02 15:56:57;;;;;;;17.70;10.40;;;;;;;2.95;100.00;99819.38;435957;1254;139581;-66
2024/02/02 16:07:06;;;;;;;16.50;10.50;;;;;;;2.82;100.00;99805.58;435174;1257;140058;-60
2024/02/02 16:17:12;;;;;;;17.20;10.50;;;;;;;2.75;100.00;99790.03;435292;1255;139588;-60
2024/02/02 16:27:18;;;;;;;16.10;9.20;;;;;;;2.71;100.00;99769.24;437505;1254;139124;-61
2024/02/02 16:37:24;;;;;;;10.60;8.80;;;;;;;2.66;100.00;99764.19;435267;1254;139206;-58
2024/02/02 16:47:30;;;;;;;13.20;7.80;;;;;;;2.59;100.00;99759.19;435039;1256;141088;-58
2024/02/02 16:57:38;;;;;;;14.70;9.80;;;;;;;2.50;100.00;99723.34;435552;1255;139960;-59
2024/02/02 17:07:45;;;;;;;12.20;6.80;;;;;;;2.41;100.00;99700.59;435972;1256;139055;-62
2024/02/02 17:17:51;;;;;;;14.30;9.10;;;;;;;2.35;100.00;99682.13;436569;1254;140126;-59
2024/02/02 17:27:58;;;;;;;13.80;9.50;;;;;;;2.31;100.00;99650.44;436278;1255;138918;-60
2024/02/02 17:38:04;;;;;;;19.60;11.10;;;;;;;2.30;100.00;99633.02;435395;1254;139613;-60
2024/02/02 17:48:10;;;;;;;20.90;12.30;;;;;;;2.29;100.00;99621.98;435468;1254;139260;-59
2024/02/02 17:58:17;;;;;;;18.40;11.00;;;;;;;2.27;100.00;99602.03;435739;1254;139680;-59
2024/02/02 18:08:23;;;;;;;24.40;12.70;;;;;;;2.26;100.00;99591.87;436622;1256;139272;-61
2024/02/02 18:18:29;;;;;;;17.40;12.50;;;;;;;2.25;100.00;99569.58;435534;1256;140179;-59
2024/02/02 18:28:35;;;;;;;21.80;11.90;;;;;;;2.23;100.00;99524.77;435339;1254;139779;-58
2024/02/02 18:38:41;;;;;;;40.80;23.40;;;;;;;2.12;100.00;99516.95;435417;1254;139175;-58
2024/02/02 18:48:47;;;;;;;22.60;14.20;;;;;;;2.12;100.00;99500.22;435477;1256;139397;-58
2024/02/02 18:58:53;;;;;;;26.80;16.10;;;;;;;2.15;100.00;99487.17;434793;1256;139737;-58
2024/02/02 19:08:59;;;;;;;19.00;12.80;;;;;;;2.20;100.00;99470.25;434859;1251;139560;-57
2024/02/02 19:19:05;;;;;;;16.70;11.70;;;;;;;2.25;100.00;99450.20;434952;1256;139473;-57
2024/02/02 19:29:11;;;;;;;18.20;12.20;;;;;;;2.32;100.00;99447.59;435373;1254;139845;-58
2024/02/02 19:39:17;;;;;;;21.90;13.90;;;;;;;2.40;100.00;99431.44;435123;1254;140101;-58
2024/02/02 19:49:23;;;;;;;17.70;11.30;;;;;;;2.45;100.00;99416.25;435016;1254;141113;-58
2024/02/02 19:59:30;;;;;;;15.20;9.50;;;;;;;2.48;100.00;99407.34;435088;1256;139804;-59
2024/02/02 20:09:36;;;;;;;22.50;14.00;;;;;;;2.51;100.00;99397.22;435772;1254;139872;-58
2024/02/02 20:19:42;;;;;;;13.40;9.20;;;;;;;2.52;100.00;99395.28;436374;1254;139521;-59
2024/02/02 20:29:48;;;;;;;17.80;11.30;;;;;;;2.56;100.00;99379.27;435270;1254;139689;-59
2024/02/02 20:39:54;;;;;;;12.70;9.70;;;;;;;2.57;100.00;99372.33;435206;1254;139164;-59
2024/02/02 20:50:00;;;;;;;13.60;9.10;;;;;;;2.54;100.00;99335.95;434501;1253;654357;-59
2024/02/02 21:00:11;;;;;;;15.00;11.00;;;;;;;2.47;100.00;99335.48;434781;1254;140086;-60
2024/02/02 21:10:17;;;;;;;20.60;14.20;;;;;;;2.41;100.00;99320.16;434883;1256;140508;-60
2024/02/02 21:20:30;;;;;;;23.90;14.20;;;;;;;2.37;100.00;99299.73;435136;1254;140232;-59
2024/02/02 21:30:37;;;;;;;17.30;10.40;;;;;;;2.39;100.00;99285.82;437189;1253;139497;-60
2024/02/02 21:40:43;;;;;;;17.60;10.00;;;;;;;2.50;100.00;99276.64;435295;1254;139066;-58
2024/02/02 21:50:49;;;;;;;16.50;9.20;;;;;;;2.64;100.00;99269.23;434692;1253;139275;-59
2024/02/02 22:00:55;;;;;;;15.10;8.10;;;;;;;2.75;100.00;99255.17;436366;1253;140242;-59
2024/02/02 22:11:02;;;;;;;11.00;7.80;;;;;;;2.85;100.00;99244.78;434613;1253;139256;-58
2024/02/02 22:21:08;;;;;;;17.90;9.20;;;;;;;2.94;100.00;99229.23;437376;1254;139848;-58
2024/02/02 22:31:20;;;;;;;13.10;7.20;;;;;;;3.05;100.00;99207.73;435168;1254;140421;-57
2024/02/02 22:41:27;;;;;;;12.30;6.50;;;;;;;3.17;100.00;99202.92;435899;1252;139933;-57
2024/02/02 22:51:47;;;;;;;8.40;6.40;;;;;;;3.37;100.00;99195.20;434929;1255;139419;-57
2024/02/02 23:01:53;;;;;;;8.70;6.00;;;;;;;3.63;100.00;99188.61;435141;1254;139021;-58
2024/02/02 23:11:59;;;;;;;7.20;5.90;;;;;;;3.85;100.00;99168.45;434876;1256;140034;-58
2024/02/02 23:22:08;;;;;;;10.40;6.30;;;;;;;4.03;100.00;99146.73;434838;1256;139439;-57
2024/02/02 23:32:14;;;;;;;6.00;5.20;;;;;;;4.16;100.00;99140.61;435229;1254;139529;-58
2024/02/02 23:42:20;;;;;;;7.60;5.50;;;;;;;4.28;100.00;99135.77;435300;1254;139067;-57
2024/02/02 23:52:27;;;;;;;10.40;6.40;;;;;;;4.36;100.00;99120.81;435097;1254;139465;-57
